Time;durP1;ratioP1;P1;durP2;ratioP2;P2;SDS_P1;SDS_P2;PMS_P1;PMS_P2;Temp;Humidity;BMP_temperature;BMP_pressure;BME280_temperature;BME280_humidity;BME280_pressure;Samples;Min_cycle;Max_cycle;Signal;HPM_P1;HPM_P2
2022/11/29 00:01:16;;;;;;;39.00;18.13;;;5.90;94.10;;;;;;4963316;28;20434;-68
2022/11/29 00:03:42;;;;;;;36.15;18.45;;;5.90;94.10;;;;;;4964340;28;20117;-67
2022/11/29 00:06:11;;;;;;;41.67;18.63;;;5.90;94.10;;;;;;4969354;28;20043;-67
2022/11/29 00:08:38;;;;;;;45.33;19.80;;;5.90;94.00;;;;;;4968265;28;20066;-68
2022/11/29 00:11:10;;;;;;;34.33;17.98;;;6.00;93.90;;;;;;4965980;28;20100;-68
2022/11/29 00:13:36;;;;;;;38.20;17.65;;;5.90;94.10;;;;;;4965999;28;20117;-67
2022/11/29 00:16:09;;;;;;;43.10;18.85;;;5.90;94.00;;;;;;4967263;28;20022;-69
2022/11/29 00:18:35;;;;;;;39.30;17.85;;;5.90;94.00;;;;;;4965390;28;20023;-68
2022/11/29 00:21:08;;;;;;;34.60;17.13;;;5.90;93.90;;;;;;4964601;28;20081;-68
2022/11/29 00:23:34;;;;;;;41.50;17.05;;;6.00;93.90;;;;;;4967100;28;20065;-68
2022/11/29 00:26:05;;;;;;;38.53;17.80;;;6.00;94.30;;;;;;4968396;28;20069;-67
2022/11/29 00:28:31;;;;;;;36.55;17.30;;;5.90;94.00;;;;;;4964908;28;20034;-68
2022/11/29 00:30:57;;;;;;;39.50;18.10;;;5.90;94.00;;;;;;4965285;28;20030;-68
2022/11/29 00:33:23;;;;;;;40.97;19.33;;;5.90;94.00;;;;;;4966750;28;20507;-68
2022/11/29 00:35:49;;;;;;;35.25;17.17;;;6.00;94.00;;;;;;4965003;28;20104;-67
2022/11/29 00:38:15;;;;;;;35.05;17.85;;;5.80;94.00;;;;;;4963773;28;20034;-66
2022/11/29 00:40:40;;;;;;;36.25;17.77;;;5.90;94.20;;;;;;4964860;28;20030;-66
2022/11/29 00:43:06;;;;;;;43.05;19.73;;;5.90;94.20;;;;;;4966080;28;20050;-66
2022/11/29 00:45:32;;;;;;;43.25;20.08;;;5.80;94.10;;;;;;4968320;28;20877;-67
2022/11/29 00:47:58;;;;;;;39.47;19.20;;;5.90;94.20;;;;;;4963084;28;20225;-66
2022/11/29 00:50:24;;;;;;;39.65;18.63;;;5.90;94.00;;;;;;4964758;28;20035;-66
2022/11/29 00:52:49;;;;;;;36.08;16.63;;;5.90;94.00;;;;;;4960217;28;20046;-67
2022/11/29 00:55:15;;;;;;;40.92;18.33;;;5.90;94.00;;;;;;4963281;28;20073;-66
2022/11/29 00:57:41;;;;;;;42.67;20.08;;;5.90;94.30;;;;;;4961453;28;20030;-66
2022/11/29 01:00:07;;;;;;;35.13;17.42;;;5.80;94.10;;;;;;4963082;28;20110;-65
2022/11/29 01:02:33;;;;;;;39.60;19.13;;;5.80;94.10;;;;;;4967402;28;20137;-66
2022/11/29 01:04:59;;;;;;;33.97;17.20;;;5.80;94.10;;;;;;4964902;28;20037;-65
2022/11/29 01:07:25;;;;;;;36.63;17.75;;;5.80;94.30;;;;;;4964364;28;20038;-65
2022/11/29 01:09:50;;;;;;;39.65;17.92;;;5.70;94.40;;;;;;4964971;28;20905;-66
2022/11/29 01:12:16;;;;;;;43.70;18.65;;;5.70;94.40;;;;;;4963607;28;20080;-66
2022/11/29 01:14:42;;;;;;;35.75;17.42;;;5.80;94.30;;;;;;4962755;28;20161;-66
2022/11/29 01:17:08;;;;;;;42.53;18.02;;;5.70;94.30;;;;;;4957915;28;20022;-65
2022/11/29 01:19:34;;;;;;;42.72;18.27;;;5.70;94.40;;;;;;4961709;28;20045;-64
2022/11/29 01:21:59;;;;;;;35.35;17.80;;;5.80;94.30;;;;;;4966658;28;20041;-64
2022/11/29 01:24:25;;;;;;;38.30;18.15;;;5.70;94.40;;;;;;4965522;28;20058;-64
2022/11/29 01:26:51;;;;;;;43.38;18.48;;;5.70;94.40;;;;;;4963718;28;20852;-64
2022/11/29 01:29:17;;;;;;;36.78;17.40;;;5.70;94.40;;;;;;4979909;28;20031;-64
2022/11/29 01:31:43;;;;;;;35.58;18.50;;;5.70;94.50;;;;;;4962172;28;20057;-65
2022/11/29 01:34:10;;;;;;;37.88;17.90;;;5.70;94.40;;;;;;4960284;28;20019;-65
2022/11/29 01:36:35;;;;;;;40.85;18.92;;;5.70;94.40;;;;;;4960628;28;20550;-65
2022/11/29 01:39:03;;;;;;;34.53;17.42;;;5.70;94.40;;;;;;4964248;28;20102;-64
2022/11/29 01:41:31;;;;;;;41.45;19.20;;;5.70;94.50;;;;;;4968052;28;20673;-67
2022/11/29 01:44:26;;;;;;;40.20;19.05;;;5.70;94.30;;;;;;4964737;28;20045;-67
2022/11/29 01:46:53;;;;;;;45.55;19.52;;;5.70;94.10;;;;;;4962365;28;20208;-66
2022/11/29 01:49:27;;;;;;;43.10;18.60;;;5.60;94.30;;;;;;4962981;28;20041;-66
2022/11/29 01:51:59;;;;;;;39.13;18.23;;;5.70;94.40;;;;;;4960403;28;20136;-65
2022/11/29 01:54:25;;;;;;;36.85;17.42;;;5.70;94.30;;;;;;4961837;28;20463;-66
2022/11/29 01:56:52;;;;;;;38.83;18.45;;;5.70;94.30;;;;;;4963397;28;20553;-67
2022/11/29 01:59:29;;;;;;;35.47;17.20;;;5.70;94.10;;;;;;4968177;28;20023;-66
2022/11/29 02:02:08;;;;;;;33.10;17.58;;;5.60;94.50;;;;;;4964071;28;20068;-66
2022/11/29 02:04:35;;;;;;;37.15;18.00;;;5.60;94.50;;;;;;4962699;28;20258;-66
2022/11/29 02:07:02;;;;;;;37.78;17.65;;;5.60;94.40;;;;;;4964646;28;20051;-66
2022/11/29 02:09:28;;;;;;;36.72;17.75;;;5.60;94.40;;;;;;4963307;28;20038;-66
2022/11/29 02:12:13;;;;;;;37.15;18.10;;;5.60;94.50;;;;;;4962336;28;20038;-66
2022/11/29 02:14:50;;;;;;;38.47;18.77;;;5.70;94.40;;;;;;4961461;28;20530;-66
2022/11/29 02:17:28;;;;;;;38.63;18.20;;;5.70;94.40;;;;;;4965020;28;20127;-66
2022/11/29 02:20:00;;;;;;;37.53;17.65;;;5.70;94.40;;;;;;4965165;28;20833;-66
2022/11/29 02:22:40;;;;;;;40.10;18.15;;;5.70;94.20;;;;;;4962147;28;20504;-65
2022/11/29 02:25:27;;;;;;;43.20;19.45;;;5.70;94.20;;;;;;4963548;28;20410;-67
2022/11/29 02:28:12;;;;;;;41.63;18.42;;;5.70;94.20;;;;;;4960271;28;20118;-66
2022/11/29 02:31:10;;;;;;;37.88;18.25;;;5.70;94.10;;;;;;4966100;28;20521;-66
2022/11/29 02:34:10;;;;;;;37.90;18.63;;;5.70;94.30;;;;;;4965994;28;20039;-67
2022/11/29 02:37:13;;;;;;;38.70;18.60;;;5.60;94.40;;;;;;4968201;28;20113;-65
2022/11/29 02:40:19;;;;;;;39.72;17.73;;;5.60;94.60;;;;;;4965865;28;20026;-65
2022/11/29 02:43:11;;;;;;;40.40;18.42;;;5.60;94.60;;;;;;4966204;28;20035;-66
2022/11/29 02:45:40;;;;;;;35.72;17.10;;;5.60;94.60;;;;;;4967429;28;20407;-65
2022/11/29 02:48:22;;;;;;;38.92;18.13;;;5.60;94.60;;;;;;4965669;28;20066;-65
2022/11/29 02:50:54;;;;;;;36.08;16.42;;;5.70;94.60;;;;;;4963456;28;20753;-65
2022/11/29 02:53:47;;;;;;;36.00;16.95;;;5.70;94.50;;;;;;4965642;28;20038;-62
2022/11/29 02:56:13;;;;;;;38.97;17.98;;;5.80;94.50;;;;;;4950399;28;20030;-66
2022/11/29 02:58:44;;;;;;;37.53;18.42;;;5.80;94.00;;;;;;4968668;28;20494;-65
2022/11/29 03:01:17;;;;;;;38.53;18.13;;;5.80;94.10;;;;;;4966093;28;20033;-65
2022/11/29 03:04:09;;;;;;;37.83;19.05;;;5.80;94.10;;;;;;4968111;28;20097;-65
2022/11/29 03:07:05;;;;;;;38.97;18.52;;;5.80;94.30;;;;;;4959494;28;20097;-64
2022/11/29 03:09:52;;;;;;;39.42;18.30;;;5.80;94.20;;;;;;4964670;28;20035;-65
2022/11/29 03:12:32;;;;;;;36.85;18.65;;;5.80;94.30;;;;;;4966866;28;20046;-64
2022/11/29 03:15:30;;;;;;;43.88;18.67;;;5.70;94.20;;;;;;4969979;28;20034;-65
2022/11/29 03:18:24;;;;;;;37.45;17.48;;;5.70;94.50;;;;;;4964372;28;20090;-64
2022/11/29 03:21:12;;;;;;;40.22;18.33;;;5.70;94.60;;;;;;4965052;28;20716;-71
2022/11/29 03:23:46;;;;;;;36.92;17.83;;;5.70;94.60;;;;;;4955259;28;20031;-71
2022/11/29 03:26:37;;;;;;;42.70;18.15;;;5.70;94.60;;;;;;4961324;28;20041;-71
2022/11/29 03:29:25;;;;;;;39.85;18.33;;;5.70;94.70;;;;;;4961859;28;20031;-72
2022/11/29 03:32:27;;;;;;;38.47;17.10;;;5.70;94.70;;;;;;4962277;28;20210;-71
2022/11/29 03:35:27;;;;;;;41.78;18.58;;;5.80;94.70;;;;;;4967215;28;20031;-73
2022/11/29 03:38:15;;;;;;;38.67;17.27;;;5.70;94.70;;;;;;4962527;28;20026;-72
2022/11/29 03:41:21;;;;;;;37.85;17.75;;;5.70;94.70;;;;;;4965682;28;20543;-71
2022/11/29 03:44:08;;;;;;;34.27;17.90;;;5.70;94.60;;;;;;4961969;28;20272;-72
2022/11/29 03:46:38;;;;;;;;;;;5.70;94.70;;;;;;4969124;28;20046;-71
2022/11/29 03:49:12;;;;;;;39.40;17.38;;;5.60;94.60;;;;;;4964643;28;19922;-72
2022/11/29 03:52:04;;;;;;;38.42;17.55;;;5.70;94.70;;;;;;4966869;28;20117;-72
2022/11/29 03:54:59;;;;;;;37.28;17.42;;;5.60;94.60;;;;;;4969782;28;20042;-72
2022/11/29 03:57:36;;;;;;;40.47;17.95;;;5.70;94.80;;;;;;4965187;28;20039;-71
2022/11/29 04:00:07;;;;;;;36.83;18.38;;;5.70;94.60;;;;;;4965615;28;20031;-72
2022/11/29 04:03:19;;;;;;;37.60;17.40;;;5.70;94.50;;;;;;4966500;28;20030;-72
2022/11/29 04:06:17;;;;;;;37.90;18.57;;;5.80;94.60;;;;;;4916524;28;20047;-72
2022/11/29 04:09:11;;;;;;;36.33;18.00;;;5.70;94.50;;;;;;4965475;28;20097;-71
2022/11/29 04:11:57;;;;;;;37.53;17.50;;;5.60;94.70;;;;;;4966524;28;20146;-72
2022/11/29 04:15:05;;;;;;;38.03;17.55;;;5.60;94.80;;;;;;4967456;28;20023;-71
2022/11/29 04:17:33;;;;;;;;;;;5.70;94.60;;;;;;4949897;28;20100;-71
2022/11/29 04:20:05;;;;;;;38.78;18.38;;;5.70;94.40;;;;;;4967207;28;20397;-72
2022/11/29 04:23:13;;;;;;;35.75;16.88;;;5.70;94.60;;;;;;4967893;28;20026;-71
2022/11/29 04:25:45;;;;;;;;;;;5.70;94.60;;;;;;4963339;28;20165;-71
2022/11/29 04:28:52;;;;;;;36.08;18.35;;;5.70;94.50;;;;;;4965520;28;19918;-71
2022/11/29 04:31:51;;;;;;;36.08;17.75;;;5.70;94.70;;;;;;4969427;28;20042;-72
2022/11/29 04:34:44;;;;;;;41.35;18.42;;;5.60;95.10;;;;;;4964192;28;20854;-72
2022/11/29 04:37:47;;;;;;;36.72;17.17;;;5.70;94.70;;;;;;4965646;28;20035;-72
2022/11/29 04:40:28;;;;;;;35.85;17.65;;;5.70;94.80;;;;;;4979038;28;20809;-72
2022/11/29 04:43:00;;;;;;;37.50;18.73;;;5.70;94.70;;;;;;4963113;28;20396;-71
2022/11/29 04:45:42;;;;;;;40.90;19.13;;;5.70;94.60;;;;;;4964883;28;20042;-72
2022/11/29 04:48:14;;;;;;;44.50;18.60;;;5.70;94.50;;;;;;4966913;28;20030;-71
2022/11/29 04:51:01;;;;;;;35.35;17.70;;;5.70;94.60;;;;;;4966446;28;20041;-72
2022/11/29 04:53:35;;;;;;;40.13;19.10;;;5.70;94.40;;;;;;4964172;28;20043;-72
2022/11/29 04:56:30;;;;;;;41.13;19.45;;;5.70;94.50;;;;;;4964151;28;20031;-71
2022/11/29 04:59:14;;;;;;;39.03;17.65;;;5.70;94.50;;;;;;4963161;28;20874;-72
2022/11/29 05:05:43;;;;;;;34.90;16.75;;;5.70;94.50;;;;;;4965419;28;20037;-72
2022/11/29 05:08:42;;;;;;;38.17;17.30;;;5.70;94.50;;;;;;4969446;28;20086;-72
2022/11/29 05:11:20;;;;;;;42.72;19.70;;;5.80;94.50;;;;;;4963078;28;20487;-72
2022/11/29 05:14:31;;;;;;;36.40;17.80;;;5.80;94.50;;;;;;4963620;28;20046;-72
2022/11/29 05:17:20;;;;;;;32.10;17.20;;;5.80;94.40;;;;;;4950480;28;20157;-72
2022/11/29 05:20:10;;;;;;;37.55;18.05;;;5.80;94.50;;;;;;4959954;28;20114;-71
2022/11/29 05:22:52;;;;;;;37.63;17.17;;;5.80;94.50;;;;;;4961935;28;20033;-72
2022/11/29 05:25:35;;;;;;;35.92;18.65;;;5.90;94.50;;;;;;4963451;28;20034;-72
2022/11/29 05:28:10;;;;;;;34.97;17.75;;;5.80;94.50;;;;;;4964250;28;20514;-72
2022/11/29 05:30:54;;;;;;;40.28;17.85;;;5.80;94.50;;;;;;4961701;28;20077;-72
2022/11/29 05:33:32;;;;;;;41.28;17.83;;;5.90;94.50;;;;;;4963163;28;20035;-72
2022/11/29 05:36:22;;;;;;;38.17;17.75;;;5.80;94.40;;;;;;4962433;28;20076;-72
2022/11/29 05:38:54;;;;;;;40.72;18.45;;;5.80;94.40;;;;;;4960244;28;20505;-72
2022/11/29 05:41:44;;;;;;;37.28;17.48;;;5.80;94.50;;;;;;4963193;28;20026;-72
2022/11/29 05:44:41;;;;;;;38.58;17.98;;;5.80;94.60;;;;;;4962864;28;20031;-72
2022/11/29 05:47:13;;;;;;;37.20;17.52;;;5.80;94.60;;;;;;4949300;28;20050;-72
2022/11/29 05:50:20;;;;;;;43.50;19.45;;;5.80;94.90;;;;;;4951965;28;20858;-72
2022/11/29 05:53:20;;;;;;;40.80;18.80;;;5.80;94.60;;;;;;4922740;29;20031;-72
2022/11/29 05:56:05;;;;;;;37.53;18.70;;;5.80;94.80;;;;;;4961980;28;20047;-73
2022/11/29 05:58:58;;;;;;;37.53;17.85;;;5.80;94.70;;;;;;4962007;28;20058;-72
2022/11/29 06:01:28;;;;;;;41.22;18.92;;;5.70;94.90;;;;;;4958586;28;20049;-72
2022/11/29 06:04:24;;;;;;;39.83;19.35;;;5.70;94.80;;;;;;4959385;28;20454;-72
2022/11/29 06:07:11;;;;;;;38.45;17.70;;;5.70;95.10;;;;;;4959484;28;20038;-72
2022/11/29 06:10:00;;;;;;;37.67;17.08;;;5.70;95.10;;;;;;4959885;28;20292;-72
2022/11/29 06:12:29;;;;;;;35.03;16.80;;;5.70;95.00;;;;;;4961074;28;20049;-72
2022/11/29 06:15:16;;;;;;;37.90;17.92;;;5.70;95.20;;;;;;4961724;28;20019;-72
2022/11/29 06:18:01;;;;;;;40.63;18.48;;;5.80;95.20;;;;;;4959749;28;20034;-72
2022/11/29 06:20:38;;;;;;;38.78;18.63;;;5.80;95.10;;;;;;4960126;28;20428;-72
2022/11/29 06:23:24;;;;;;;42.00;18.13;;;5.80;94.90;;;;;;4964999;28;20125;-72
2022/11/29 06:26:28;;;;;;;39.13;17.90;;;5.80;95.00;;;;;;4963517;28;20047;-72
2022/11/29 06:29:32;;;;;;;40.00;18.67;;;5.80;95.00;;;;;;4959863;28;20041;-72
2022/11/29 06:32:18;;;;;;;39.25;19.40;;;5.80;95.00;;;;;;4959175;28;20126;-72
2022/11/29 06:34:55;;;;;;;35.05;18.83;;;5.80;95.10;;;;;;4957802;28;20085;-72
2022/11/29 06:37:21;;;;;;;36.80;18.08;;;5.80;95.10;;;;;;4961195;28;20034;-72
2022/11/29 06:39:47;;;;;;;41.67;20.15;;;5.80;95.00;;;;;;4961184;28;20094;-72
2022/11/29 06:42:13;;;;;;;39.22;19.10;;;5.70;95.30;;;;;;4962071;28;20031;-72
2022/11/29 06:44:39;;;;;;;42.60;18.65;;;5.70;95.20;;;;;;4962793;28;20030;-72
2022/11/29 06:47:12;;;;;;;42.47;19.95;;;5.60;95.40;;;;;;4961114;28;20511;-72
2022/11/29 06:49:50;;;;;;;41.03;19.15;;;5.70;95.50;;;;;;4961828;28;20035;-72
2022/11/29 06:52:31;;;;;;;40.13;18.67;;;5.70;95.60;;;;;;4960237;28;20487;-72
2022/11/29 06:55:14;;;;;;;37.17;18.27;;;5.70;95.70;;;;;;4958070;28;20033;-72
2022/11/29 06:58:11;;;;;;;40.78;19.38;;;5.70;95.70;;;;;;4961594;28;20061;-71
2022/11/29 07:01:09;;;;;;;38.63;19.55;;;5.60;95.70;;;;;;4960129;28;20035;-72
2022/11/29 07:03:56;;;;;;;41.30;19.60;;;5.60;96.00;;;;;;4957345;28;20730;-72
2022/11/29 07:06:27;;;;;;;40.60;19.77;;;5.60;95.90;;;;;;4960471;28;20092;-72
2022/11/29 07:08:58;;;;;;;37.92;19.02;;;5.60;95.90;;;;;;4959357;28;20038;-72
2022/11/29 07:11:25;;;;;;;38.45;18.75;;;5.70;95.90;;;;;;4960886;28;20672;-71
2022/11/29 07:13:51;;;;;;;36.40;17.60;;;5.70;95.80;;;;;;4960769;28;20504;-71
2022/11/29 07:16:30;;;;;;;34.63;18.60;;;5.80;95.70;;;;;;4965455;28;20769;-72
2022/11/29 07:19:14;;;;;;;41.72;19.58;;;5.90;95.70;;;;;;4963669;28;20041;-71
2022/11/29 07:21:44;;;;;;;42.83;19.48;;;5.90;95.70;;;;;;4960666;28;20126;-71
2022/11/29 07:24:13;;;;;;;43.58;18.63;;;6.00;95.50;;;;;;4963641;28;20494;-71
2022/11/29 07:26:52;;;;;;;45.03;20.25;;;5.90;95.50;;;;;;4959577;28;20062;-72
2022/11/29 07:29:31;;;;;;;43.38;19.95;;;5.90;95.60;;;;;;4963653;28;20081;-71
2022/11/29 07:32:02;;;;;;;38.25;19.98;;;5.90;95.60;;;;;;4961349;28;20049;-71
2022/11/29 07:34:43;;;;;;;39.80;20.52;;;5.90;95.90;;;;;;4962217;28;20522;-72
2022/11/29 07:37:32;;;;;;;41.65;20.05;;;5.90;95.80;;;;;;4960791;28;20559;-72
2022/11/29 07:40:01;;;;;;;38.40;18.42;;;5.90;95.90;;;;;;4941317;28;20149;-71
2022/11/29 07:42:27;;;;;;;39.08;18.60;;;5.90;95.90;;;;;;4966214;28;20057;-72
2022/11/29 07:45:04;;;;;;;42.55;19.55;;;5.90;95.90;;;;;;4967466;28;20035;-71
2022/11/29 07:47:30;;;;;;;40.55;19.60;;;6.00;95.80;;;;;;4963769;28;20034;-73
2022/11/29 07:49:56;;;;;;;41.35;19.30;;;6.00;95.80;;;;;;4977430;28;20038;-71
2022/11/29 07:52:22;;;;;;;39.30;18.92;;;6.00;95.80;;;;;;4964430;28;20066;-72
2022/11/29 07:54:47;;;;;;;43.63;20.15;;;6.00;95.90;;;;;;4965699;28;20137;-72
2022/11/29 07:57:13;;;;;;;39.47;18.42;;;6.00;95.80;;;;;;4963620;28;20035;-72
2022/11/29 07:59:39;;;;;;;44.33;20.38;;;6.10;95.90;;;;;;4962354;28;20034;-72
2022/11/29 08:02:05;;;;;;;40.85;19.23;;;6.10;95.80;;;;;;4964132;28;20042;-71
2022/11/29 08:04:30;;;;;;;34.72;17.38;;;6.10;95.70;;;;;;4964702;28;20023;-71
2022/11/29 08:07:00;;;;;;;45.20;20.08;;;6.10;95.80;;;;;;4964446;28;20122;-71
2022/11/29 08:09:25;;;;;;;39.92;19.38;;;6.10;95.70;;;;;;4964802;28;20031;-72
2022/11/29 08:11:51;;;;;;;45.10;19.85;;;6.10;95.70;;;;;;4960757;28;20050;-71
2022/11/29 08:14:17;;;;;;;38.38;19.60;;;6.20;95.90;;;;;;4965364;28;20035;-71
2022/11/29 08:16:43;;;;;;;38.80;20.20;;;6.20;95.60;;;;;;4963532;28;20030;-72
2022/11/29 08:19:08;;;;;;;38.15;19.38;;;6.20;95.70;;;;;;4963583;28;20554;-72
2022/11/29 08:21:34;;;;;;;41.63;19.80;;;6.20;95.50;;;;;;4963638;28;20833;-71
2022/11/29 08:24:00;;;;;;;40.20;19.52;;;6.10;95.80;;;;;;4963629;28;20106;-71
2022/11/29 08:26:28;;;;;;;37.60;17.70;;;6.10;96.00;;;;;;4962591;28;20035;-72
2022/11/29 08:28:54;;;;;;;44.67;20.70;;;6.10;95.90;;;;;;4960783;28;20096;-72
2022/11/29 08:31:20;;;;;;;39.92;18.55;;;6.20;96.00;;;;;;4963756;28;20034;-72
2022/11/29 08:33:46;;;;;;;38.63;18.13;;;6.20;96.00;;;;;;4975116;28;20038;-72
2022/11/29 08:36:21;;;;;;;40.45;19.42;;;6.20;95.90;;;;;;4961911;28;20027;-71
2022/11/29 08:38:47;;;;;;;42.72;20.23;;;6.20;95.90;;;;;;4962169;28;20766;-72
2022/11/29 08:41:15;;;;;;;44.58;19.45;;;6.20;95.90;;;;;;4962072;28;20042;-71
2022/11/29 08:43:41;;;;;;;39.60;18.60;;;6.10;95.70;;;;;;4951333;28;20377;-71
2022/11/29 08:46:07;;;;;;;39.85;19.05;;;6.10;95.70;;;;;;4962054;28;20795;-70
2022/11/29 08:48:34;;;;;;;38.17;18.77;;;6.10;95.90;;;;;;4963779;28;20122;-72
2022/11/29 08:51:00;;;;;;;41.58;20.85;;;6.10;96.00;;;;;;4958912;28;20377;-71
2022/11/29 08:53:42;;;;;;;37.30;19.77;;;6.20;96.00;;;;;;4958519;28;20101;-70
2022/11/29 08:56:19;;;;;;;42.20;20.20;;;6.20;95.90;;;;;;4963547;28;20073;-71
2022/11/29 08:58:45;;;;;;;39.72;18.83;;;6.20;95.80;;;;;;4960288;28;20466;-71
2022/11/29 09:01:17;;;;;;;44.00;19.90;;;6.20;96.20;;;;;;4962226;28;20027;-71
2022/11/29 09:03:58;;;;;;;44.53;20.20;;;6.20;96.20;;;;;;4963206;28;20526;-71
2022/11/29 09:06:28;;;;;;;37.50;19.02;;;6.20;95.90;;;;;;4963254;28;20451;-70
2022/11/29 09:08:55;;;;;;;39.30;18.52;;;6.10;95.90;;;;;;4962607;28;20154;-72
2022/11/29 09:11:22;;;;;;;40.63;18.70;;;6.10;96.50;;;;;;4962200;28;20483;-73
2022/11/29 09:13:51;;;;;;;46.45;21.00;;;6.20;96.10;;;;;;4967748;28;20130;-70
2022/11/29 09:16:20;;;;;;;39.10;19.13;;;6.30;96.10;;;;;;4977454;28;20031;-72
2022/11/29 09:18:51;;;;;;;40.67;19.25;;;6.40;96.00;;;;;;4961707;28;20822;-70
2022/11/29 09:21:17;;;;;;;45.70;21.00;;;6.40;95.90;;;;;;4958331;28;20066;-73
2022/11/29 09:23:43;;;;;;;39.85;19.35;;;6.40;95.70;;;;;;4960119;28;20130;-73
2022/11/29 09:26:14;;;;;;;44.95;19.60;;;6.40;95.70;;;;;;4961523;28;20506;-70
2022/11/29 09:28:40;;;;;;;41.08;18.65;;;6.40;95.60;;;;;;4960601;28;20035;-71
2022/11/29 09:31:08;;;;;;;43.08;19.42;;;6.40;96.00;;;;;;4961631;28;20037;-70
2022/11/29 09:33:34;;;;;;;41.05;18.98;;;6.50;96.00;;;;;;4963727;28;20164;-70
2022/11/29 09:36:01;;;;;;;40.33;19.75;;;6.40;95.80;;;;;;4960483;28;20027;-69
2022/11/29 09:38:27;;;;;;;42.35;20.83;;;6.50;95.90;;;;;;4959269;28;20031;-71
2022/11/29 09:40:55;;;;;;;38.35;19.35;;;6.50;95.70;;;;;;4957234;28;20031;-71
2022/11/29 09:43:34;;;;;;;39.70;19.60;;;6.50;95.70;;;;;;4960592;28;20578;-72
2022/11/29 09:46:19;;;;;;;44.03;19.70;;;6.50;95.60;;;;;;4961662;28;20038;-73
2022/11/29 09:49:03;;;;;;;40.53;19.35;;;6.50;95.60;;;;;;4974202;28;20027;-73
2022/11/29 09:51:39;;;;;;;42.15;20.60;;;6.50;95.70;;;;;;4963400;28;20104;-73
2022/11/29 09:54:28;;;;;;;40.35;20.20;;;6.50;95.70;;;;;;4963727;28;20041;-70
2022/11/29 09:56:55;;;;;;;42.90;19.67;;;6.50;95.60;;;;;;4954157;28;20042;-71
2022/11/29 09:59:36;;;;;;;40.53;19.50;;;6.50;95.70;;;;;;4961540;28;20035;-72
2022/11/29 10:02:32;;;;;;;34.17;18.30;;;6.60;95.70;;;;;;4961612;28;20088;-73
2022/11/29 10:05:09;;;;;;;41.33;18.60;;;6.70;95.80;;;;;;4961114;28;20823;-72
2022/11/29 10:07:46;;;;;;;43.05;19.55;;;6.70;95.50;;;;;;4956000;28;20048;-72
2022/11/29 10:10:28;;;;;;;39.10;19.55;;;6.80;95.30;;;;;;4953965;28;20106;-74
2022/11/29 10:13:18;;;;;;;40.28;18.85;;;6.80;95.20;;;;;;4958484;28;20379;-71
2022/11/29 10:15:49;;;;;;;40.30;18.75;;;6.80;95.30;;;;;;4959185;28;20038;-71
2022/11/29 10:18:22;;;;;;;38.35;18.55;;;6.80;95.20;;;;;;4958457;28;20110;-71
2022/11/29 10:20:52;;;;;;;38.63;18.60;;;6.90;95.00;;;;;;4956223;28;20653;-67
2022/11/29 10:23:23;;;;;;;39.92;19.10;;;6.90;95.10;;;;;;4960090;28;20043;-65
2022/11/29 10:25:50;;;;;;;39.50;19.88;;;7.00;95.10;;;;;;4961346;28;20042;-65
2022/11/29 10:28:20;;;;;;;37.75;18.83;;;7.00;95.00;;;;;;4960546;28;20089;-65
2022/11/29 10:30:47;;;;;;;40.63;19.02;;;7.00;94.70;;;;;;4965162;28;20034;-77
2022/11/29 10:33:33;;;;;;;40.10;20.27;;;7.00;94.70;;;;;;4964646;28;20039;-66
2022/11/29 10:36:03;;;;;;;40.47;18.58;;;7.00;94.60;;;;;;4960786;28;20037;-79
2022/11/29 10:38:29;;;;;;;36.78;18.38;;;7.10;94.90;;;;;;4958874;28;20042;-78
2022/11/29 10:41:08;;;;;;;34.60;17.88;;;7.00;95.00;;;;;;4959982;28;20034;-78
2022/11/29 10:43:36;;;;;;;36.92;17.90;;;7.10;94.80;;;;;;4963719;28;20584;-78
2022/11/29 10:46:02;;;;;;;42.33;18.85;;;7.10;94.70;;;;;;4963061;28;20057;-66
2022/11/29 10:48:31;;;;;;;36.90;17.23;;;7.10;94.50;;;;;;4958587;28;20035;-67
2022/11/29 10:50:58;;;;;;;41.10;18.83;;;7.00;94.80;;;;;;4962152;28;20027;-72
2022/11/29 10:53:36;;;;;;;35.75;18.42;;;7.00;94.80;;;;;;4963283;28;20443;-66
2022/11/29 10:56:18;;;;;;;35.72;17.77;;;7.00;95.00;;;;;;4963911;28;20030;-66
2022/11/29 10:58:56;;;;;;;41.67;19.80;;;7.10;94.90;;;;;;4960481;28;20106;-67
2022/11/29 11:01:23;;;;;;;44.05;18.13;;;7.10;94.70;;;;;;4962649;28;20053;-67
2022/11/29 11:03:51;;;;;;;35.35;18.05;;;7.20;94.60;;;;;;4967315;28;20043;-66
2022/11/29 11:06:42;;;;;;;38.47;18.98;;;7.20;94.60;;;;;;4967738;28;20432;-66
2022/11/29 11:09:19;;;;;;;36.15;18.10;;;7.20;94.60;;;;;;4964588;28;20046;-67
2022/11/29 11:11:54;;;;;;;38.33;17.60;;;7.20;94.50;;;;;;4962608;28;20066;-67
2022/11/29 11:14:22;;;;;;;33.63;17.55;;;7.30;94.50;;;;;;4965815;28;20103;-66
2022/11/29 11:16:49;;;;;;;39.22;19.05;;;7.30;94.50;;;;;;4976307;28;20081;-66
2022/11/29 11:19:30;;;;;;;38.75;17.85;;;7.30;94.20;;;;;;4963167;28;20042;-66
2022/11/29 11:22:02;;;;;;;31.55;17.17;;;7.30;94.30;;;;;;4964195;28;20212;-65
2022/11/29 11:24:31;;;;;;;36.40;18.23;;;7.30;94.50;;;;;;4966739;28;20042;-65
2022/11/29 11:26:57;;;;;;;39.60;19.33;;;7.40;94.40;;;;;;4967236;28;20416;-65
2022/11/29 11:29:39;;;;;;;38.88;20.45;;;7.40;94.40;;;;;;4966539;28;20085;-65
2022/11/29 11:32:16;;;;;;;39.50;19.17;;;7.40;94.10;;;;;;4963047;28;20058;-75
2022/11/29 11:34:52;;;;;;;41.08;19.48;;;7.40;94.20;;;;;;4961905;28;20031;-77
2022/11/29 11:37:27;;;;;;;43.60;19.75;;;7.30;94.00;;;;;;4959963;28;20455;-78
2022/11/29 11:39:58;;;;;;;38.73;17.63;;;7.30;94.20;;;;;;4982015;28;20030;-78
2022/11/29 11:42:38;;;;;;;36.63;18.25;;;7.20;94.30;;;;;;4965072;28;20047;-78
2022/11/29 11:45:10;;;;;;;38.10;17.55;;;7.20;94.50;;;;;;4966321;28;20065;-78
2022/11/29 11:47:45;;;;;;;35.17;17.85;;;7.20;94.60;;;;;;4958855;28;20043;-77
2022/11/29 11:50:23;;;;;;;37.92;18.83;;;7.30;94.50;;;;;;4962833;28;20023;-78
2022/11/29 11:52:52;;;;;;;37.47;18.75;;;7.30;94.50;;;;;;4966329;28;20038;-78
2022/11/29 11:55:21;;;;;;;41.65;18.77;;;7.30;94.30;;;;;;4969051;28;20045;-78
2022/11/29 11:58:12;;;;;;;34.35;17.67;;;7.30;94.20;;;;;;4964065;28;20018;-79
2022/11/29 12:00:55;;;;;;;39.47;18.67;;;7.30;94.20;;;;;;4959353;28;20114;-76
2022/11/29 12:03:51;;;;;;;37.97;19.48;;;7.30;94.30;;;;;;4957122;28;20680;-61
2022/11/29 12:06:23;;;;;;;39.03;17.58;;;7.10;94.60;;;;;;4962660;28;20037;-63
2022/11/29 12:08:53;;;;;;;43.50;19.13;;;7.10;95.30;;;;;;4963027;28;20037;-66
2022/11/29 12:11:20;;;;;;;43.55;19.35;;;7.20;95.00;;;;;;4961676;28;20030;-66
2022/11/29 12:13:51;;;;;;;38.65;17.67;;;7.10;94.80;;;;;;4963098;28;20114;-64
2022/11/29 12:16:29;;;;;;;37.58;17.25;;;7.10;95.00;;;;;;4963444;28;20109;-65
2022/11/29 12:19:05;;;;;;;39.35;18.83;;;7.20;95.00;;;;;;4964396;28;20518;-65
2022/11/29 12:21:37;;;;;;;38.60;18.88;;;7.20;95.00;;;;;;4963560;28;20030;-74
2022/11/29 12:24:08;;;;;;;40.05;18.50;;;7.20;94.80;;;;;;4960526;28;20073;-65
2022/11/29 12:26:39;;;;;;;37.50;18.15;;;7.30;94.80;;;;;;4959976;28;20063;-69
2022/11/29 12:29:16;;;;;;;43.28;19.88;;;7.30;94.80;;;;;;4956377;28;20030;-69
2022/11/29 12:31:55;;;;;;;35.45;18.70;;;7.30;94.90;;;;;;4955932;28;20105;-70
2022/11/29 12:34:24;;;;;;;37.30;18.65;;;7.20;94.90;;;;;;4950365;28;20042;-68
2022/11/29 12:37:09;;;;;;;38.33;18.02;;;7.30;94.80;;;;;;4957212;28;20545;-69
2022/11/29 12:39:51;;;;;;;46.58;20.13;;;7.40;94.90;;;;;;4955798;28;20510;-69
2022/11/29 12:42:34;;;;;;;43.38;19.20;;;7.40;94.80;;;;;;4957162;28;20551;-69
2022/11/29 12:45:22;;;;;;;39.70;18.60;;;7.30;95.00;;;;;;4956478;28;20035;-69
2022/11/29 12:47:54;;;;;;;39.05;19.00;;;7.30;94.70;;;;;;4956809;28;20027;-69
2022/11/29 12:50:49;;;;;;;40.53;18.65;;;7.30;94.80;;;;;;4959957;28;20765;-69
2022/11/29 12:53:27;;;;;;;39.35;18.45;;;7.40;94.80;;;;;;4962561;28;20047;-69
2022/11/29 12:56:04;;;;;;;36.72;19.05;;;7.40;95.00;;;;;;4962683;28;20118;-69
2022/11/29 12:58:42;;;;;;;;;;;7.40;94.70;;;;;;4960163;28;20031;-69
2022/11/29 13:01:32;;;;;;;37.72;17.90;;;7.50;94.60;;;;;;4962390;28;20785;-68
2022/11/29 13:04:07;;;;;;;39.03;18.80;;;7.50;94.70;;;;;;4960276;28;20093;-69
2022/11/29 13:06:42;;;;;;;37.20;18.23;;;7.50;94.80;;;;;;4961291;28;20033;-68
2022/11/29 13:09:35;;;;;;;45.78;19.88;;;7.40;94.80;;;;;;4962318;28;20566;-67
2022/11/29 13:12:13;;;;;;;34.97;16.60;;;7.40;94.90;;;;;;4961410;28;20078;-68
2022/11/29 13:14:44;;;;;;;40.35;18.48;;;7.50;94.90;;;;;;4962493;28;20528;-68
2022/11/29 13:17:55;;;;;;;39.63;18.67;;;7.50;94.90;;;;;;4956477;28;20039;-68
2022/11/29 13:20:29;;;;;;;39.40;18.08;;;7.60;94.80;;;;;;4963581;28;20763;-68
2022/11/29 13:23:15;;;;;;;38.83;17.98;;;7.60;94.70;;;;;;4958045;28;20122;-68
2022/11/29 13:25:44;;;;;;;41.20;18.67;;;7.60;94.50;;;;;;4958256;28;20120;-68
2022/11/29 13:28:24;;;;;;;36.70;17.95;;;7.60;94.40;;;;;;4959544;28;20113;-68
2022/11/29 13:30:51;;;;;;;43.33;20.08;;;7.50;94.50;;;;;;4959037;28;20498;-69